createdAt,value
2022-10-17T00:02:07.302Z,98.33
2022-10-17T00:07:02.216Z,97.79
2022-10-17T00:09:30.237Z,96.89
2022-10-17T00:11:57.295Z,96.66
2022-10-17T00:14:24.344Z,97.13
2022-10-17T00:16:51.601Z,96.91
2022-10-17T00:19:18.990Z,97.06
2022-10-17T00:21:46.152Z,96.51
2022-10-17T00:24:13.481Z,96.88
2022-10-17T00:26:40.642Z,97.55
2022-10-17T00:29:07.861Z,98.35
2022-10-17T00:31:35.672Z,98.43
2022-10-17T00:34:02.693Z,98.97
2022-10-17T00:36:31.096Z,99.03
2022-10-17T00:38:59.129Z,98.88
2022-10-17T00:41:27.933Z,98.65
2022-10-17T00:43:57.453Z,98.60
2022-10-17T00:46:26.041Z,98.74
2022-10-17T00:48:54.581Z,99.02
2022-10-17T00:51:25.124Z,98.79
2022-10-17T00:53:52.286Z,98.60
2022-10-17T00:56:20.807Z,98.98
2022-10-17T00:58:48.293Z,99.63
2022-10-17T01:01:15.639Z,99.96
2022-10-17T01:03:43.408Z,99.68
2022-10-17T01:06:10.473Z,99.07
2022-10-17T01:08:38.109Z,99.04
2022-10-17T01:11:18.373Z,99.36
2022-10-17T01:13:54.782Z,99.29
2022-10-17T01:16:27.974Z,99.38
2022-10-17T01:19:02.278Z,99.13
2022-10-17T01:21:29.436Z,99.47
2022-10-17T01:24:08.367Z,99.94
2022-10-17T01:26:48.228Z,100.00
2022-10-17T01:29:30.517Z,100.00
2022-10-17T01:32:00.775Z,100.00
2022-10-17T01:34:41.000Z,100.00
2022-10-17T01:37:19.269Z,100.00
2022-10-17T01:39:53.556Z,100.00
2022-10-17T01:42:28.244Z,100.00
2022-10-17T01:44:58.722Z,100.00
2022-10-17T01:47:28.446Z,100.00
2022-10-17T01:49:59.836Z,100.00
2022-10-17T01:52:30.743Z,100.00
2022-10-17T01:55:03.499Z,100.00
2022-10-17T01:57:35.707Z,100.00
2022-10-17T02:00:06.251Z,100.00
2022-10-17T02:02:41.192Z,100.00
2022-10-17T02:05:08.645Z,100.00
2022-10-17T02:07:35.761Z,100.00
2022-10-17T02:10:04.574Z,100.00
2022-10-17T02:12:35.785Z,100.00
2022-10-17T02:15:02.932Z,100.00
2022-10-17T02:17:46.237Z,100.00
2022-10-17T02:20:30.189Z,100.00
2022-10-17T02:23:02.808Z,100.00
2022-10-17T02:25:36.792Z,100.00
2022-10-17T02:28:13.843Z,100.00
2022-10-17T02:31:00.406Z,100.00
2022-10-17T02:33:27.553Z,100.00
2022-10-17T02:36:01.419Z,100.00
2022-10-17T02:38:30.807Z,100.00
2022-10-17T02:40:58.234Z,100.00
2022-10-17T02:43:25.496Z,100.00
2022-10-17T02:45:53.939Z,100.00
2022-10-17T02:48:28.195Z,100.00
2022-10-17T02:50:58.776Z,100.00
2022-10-17T02:53:33.308Z,100.00
2022-10-17T02:56:03.060Z,100.00
2022-10-17T02:58:34.580Z,100.00
2022-10-17T03:01:02.115Z,100.00
2022-10-17T03:03:32.637Z,100.00
2022-10-17T03:06:02.430Z,100.00
2022-10-17T03:08:29.663Z,100.00
2022-10-17T03:10:57.070Z,100.00
2022-10-17T03:13:25.822Z,100.00
2022-10-17T03:15:52.908Z,100.00
2022-10-17T03:18:20.003Z,100.00
2022-10-17T03:20:50.019Z,100.00
2022-10-17T03:23:17.344Z,100.00
2022-10-17T03:25:45.888Z,100.00
2022-10-17T03:28:14.805Z,100.00
2022-10-17T03:30:42.018Z,100.00
2022-10-17T03:33:10.432Z,100.00
2022-10-17T03:35:38.921Z,100.00
2022-10-17T03:38:07.537Z,100.00
2022-10-17T03:40:34.995Z,100.00
2022-10-17T03:43:02.288Z,100.00
2022-10-17T03:45:31.207Z,100.00
2022-10-17T03:48:00.172Z,100.00
2022-10-17T03:50:27.942Z,100.00
2022-10-17T03:52:56.146Z,100.00
2022-10-17T03:55:24.169Z,100.00
2022-10-17T03:57:51.810Z,100.00
2022-10-17T04:00:21.920Z,100.00
2022-10-17T04:02:55.809Z,100.00
2022-10-17T04:05:23.004Z,100.00
2022-10-17T04:07:50.122Z,100.00
2022-10-17T04:10:21.136Z,100.00
2022-10-17T04:12:48.351Z,100.00
2022-10-17T04:15:15.528Z,100.00
2022-10-17T04:17:43.021Z,100.00
2022-10-17T04:20:10.632Z,100.00
2022-10-17T04:22:37.887Z,100.00
2022-10-17T04:25:05.815Z,100.00
2022-10-17T04:27:45.606Z,100.00
2022-10-17T04:30:13.865Z,100.00
2022-10-17T04:32:41.539Z,100.00
2022-10-17T04:35:13.405Z,100.00
2022-10-17T04:37:45.435Z,100.00
2022-10-17T04:40:18.019Z,100.00
2022-10-17T04:42:45.831Z,100.00
2022-10-17T04:45:16.170Z,100.00
2022-10-17T04:47:44.117Z,100.00
2022-10-17T04:50:11.444Z,100.00
2022-10-17T04:52:40.381Z,100.00
2022-10-17T04:55:09.359Z,100.00
2022-10-17T04:57:36.538Z,100.00
2022-10-17T05:00:14.010Z,100.00
2022-10-17T05:03:00.278Z,100.00
2022-10-17T05:05:28.817Z,100.00
2022-10-17T05:07:56.804Z,100.00
2022-10-17T05:10:26.957Z,100.00
2022-10-17T05:12:54.864Z,100.00
2022-10-17T05:15:24.599Z,100.00
2022-10-17T05:17:55.425Z,100.00
2022-10-17T05:20:23.430Z,100.00
2022-10-17T05:22:50.586Z,100.00
2022-10-17T05:25:18.788Z,100.00
2022-10-17T05:27:46.220Z,100.00
2022-10-17T05:30:13.399Z,100.00
2022-10-17T05:32:41.292Z,100.00
2022-10-17T05:35:08.859Z,100.00
2022-10-17T05:37:37.063Z,100.00
2022-10-17T05:40:05.187Z,100.00
2022-10-17T05:42:32.657Z,100.00
2022-10-17T05:45:00.045Z,100.00
2022-10-17T05:47:27.612Z,100.00
2022-10-17T05:49:54.954Z,100.00
2022-10-17T05:52:28.077Z,100.00
2022-10-17T05:55:10.045Z,100.00
2022-10-17T05:57:37.266Z,100.00
2022-10-17T06:00:07.725Z,100.00
2022-10-17T06:02:50.640Z,100.00
2022-10-17T06:05:19.491Z,100.00
2022-10-17T06:07:47.142Z,100.00
2022-10-17T06:10:16.528Z,100.00
2022-10-17T06:12:44.466Z,100.00
2022-10-17T06:15:12.071Z,100.00
2022-10-17T06:17:41.706Z,100.00
2022-10-17T06:20:09.011Z,100.00
2022-10-17T06:22:36.112Z,100.00
2022-10-17T06:25:08.156Z,100.00
2022-10-17T06:27:35.228Z,100.00
2022-10-17T06:30:02.393Z,100.00
2022-10-17T06:32:30.695Z,100.00
2022-10-17T06:34:57.904Z,100.00
2022-10-17T06:37:25.204Z,100.00
2022-10-17T06:39:52.885Z,100.00
2022-10-17T06:42:22.469Z,100.00
2022-10-17T06:45:15.437Z,100.00
2022-10-17T06:47:52.396Z,100.00
2022-10-17T06:50:34.980Z,100.00
2022-10-17T06:53:13.380Z,100.00
2022-10-17T06:55:51.328Z,100.00
2022-10-17T06:58:25.382Z,100.00
2022-10-17T07:01:22.889Z,100.00
2022-10-17T07:03:54.654Z,100.00
2022-10-17T07:06:24.615Z,100.00
2022-10-17T07:08:52.464Z,100.00
2022-10-17T07:11:20.798Z,100.00
2022-10-17T07:13:50.304Z,100.00
2022-10-17T07:16:17.694Z,100.00
2022-10-17T07:18:51.194Z,100.00
2022-10-17T07:21:18.973Z,100.00
2022-10-17T07:23:46.067Z,100.00
2022-10-17T07:26:15.366Z,100.00
2022-10-17T07:28:44.594Z,100.00
2022-10-17T07:31:28.413Z,99.59
2022-10-17T07:33:55.469Z,98.98
2022-10-17T07:36:22.511Z,98.28
2022-10-17T07:38:50.242Z,98.15
2022-10-17T07:41:21.854Z,97.44
2022-10-17T07:43:50.760Z,95.93
2022-10-17T07:46:21.772Z,95.47
2022-10-17T07:48:49.758Z,94.55
2022-10-17T07:51:18.746Z,95.26
2022-10-17T07:53:48.744Z,94.67
2022-10-17T07:56:16.383Z,94.24
2022-10-17T07:58:43.373Z,94.11
2022-10-17T08:01:15.481Z,92.58
2022-10-17T08:03:44.086Z,92.45
2022-10-17T08:06:11.534Z,91.10
2022-10-17T08:08:38.566Z,89.58
2022-10-17T08:11:06.717Z,89.11
2022-10-17T08:13:34.249Z,88.87
2022-10-17T08:16:02.135Z,89.04
2022-10-17T08:18:29.259Z,87.81
2022-10-17T08:21:00.257Z,86.75
2022-10-17T08:23:28.072Z,85.95
2022-10-17T08:25:55.178Z,83.85
2022-10-17T08:28:22.305Z,83.79
2022-10-17T08:30:49.374Z,82.12
2022-10-17T08:33:16.458Z,81.62
2022-10-17T08:35:43.428Z,81.80
2022-10-17T08:38:12.361Z,82.78
2022-10-17T08:40:42.807Z,80.69
2022-10-17T08:43:16.014Z,80.48
2022-10-17T08:45:43.058Z,79.71
2022-10-17T08:48:12.414Z,79.24
2022-10-17T08:50:46.464Z,78.98
2022-10-17T08:53:16.515Z,76.90
2022-10-17T08:55:45.925Z,76.31
2022-10-17T08:58:14.532Z,76.76
2022-10-17T09:00:46.212Z,76.65
2022-10-17T09:03:32.119Z,78.62
2022-10-17T09:06:10.826Z,79.59
2022-10-17T09:08:44.326Z,77.75
2022-10-17T09:11:31.240Z,76.61
2022-10-17T09:14:04.730Z,75.49
2022-10-17T09:16:39.937Z,74.04
2022-10-17T09:19:12.481Z,72.34
2022-10-17T09:21:42.334Z,72.26
2022-10-17T09:24:15.875Z,72.91
2022-10-17T09:26:45.013Z,72.03
2022-10-17T09:29:25.729Z,71.58
2022-10-17T09:32:00.612Z,73.21
2022-10-17T09:34:28.475Z,74.20
2022-10-17T09:36:58.042Z,74.16
2022-10-17T09:39:26.625Z,71.86
2022-10-17T09:41:56.864Z,70.63
2022-10-17T09:44:25.620Z,71.46
2022-10-17T09:47:04.996Z,70.85
2022-10-17T09:49:36.692Z,69.91
2022-10-17T09:52:05.265Z,70.49
2022-10-17T09:54:43.508Z,68.46
2022-10-17T09:57:11.457Z,68.67
2022-10-17T09:59:42.970Z,68.75
2022-10-17T10:02:09.967Z,67.74
2022-10-17T10:04:47.039Z,67.06
2022-10-17T10:07:30.682Z,66.25
2022-10-17T10:10:00.350Z,66.46
2022-10-17T10:12:31.851Z,66.35
2022-10-17T10:14:59.796Z,65.30
2022-10-17T10:17:33.112Z,66.94
2022-10-17T10:20:00.854Z,66.46
2022-10-17T10:22:28.618Z,66.31
2022-10-17T10:25:12.940Z,65.55
2022-10-17T10:27:43.582Z,66.11
2022-10-17T10:30:30.244Z,65.24
2022-10-17T10:33:00.483Z,65.72
2022-10-17T10:35:35.097Z,65.63
2022-10-17T10:38:08.872Z,68.34
2022-10-17T10:40:48.092Z,66.42
2022-10-17T10:43:30.721Z,67.53
2022-10-17T10:45:59.299Z,68.84
2022-10-17T10:48:31.921Z,68.81
2022-10-17T10:51:04.533Z,67.90
2022-10-17T10:53:41.287Z,67.65
2022-10-17T10:56:18.392Z,67.21
2022-10-17T10:59:00.460Z,65.25
2022-10-17T11:02:05.601Z,65.10
2022-10-17T11:04:40.738Z,63.69
2022-10-17T11:07:30.663Z,64.53
2022-10-17T11:10:10.547Z,65.38
2022-10-17T11:12:46.769Z,66.10
2022-10-17T11:15:17.223Z,65.89
2022-10-17T11:17:56.858Z,66.78
2022-10-17T11:20:30.060Z,65.02
2022-10-17T11:23:21.570Z,64.40
2022-10-17T11:25:51.698Z,62.55
2022-10-17T11:28:21.854Z,62.29
2022-10-17T11:31:03.328Z,63.09
2022-10-17T11:33:57.761Z,61.31
2022-10-17T11:36:32.201Z,63.78
2022-10-17T11:39:11.410Z,64.17
2022-10-17T11:41:45.318Z,63.28
2022-10-17T11:44:39.008Z,64.09
2022-10-17T11:47:40.174Z,62.80
2022-10-17T11:54:03.088Z,62.85
2022-10-17T11:56:42.932Z,60.88
2022-10-17T11:59:30.302Z,62.03
2022-10-17T12:02:04.189Z,61.93
2022-10-17T12:04:55.205Z,60.75
2022-10-17T12:07:36.119Z,61.05
2022-10-17T12:10:03.685Z,62.17
2022-10-17T12:12:34.570Z,62.30
2022-10-17T12:15:14.180Z,62.66
2022-10-17T12:17:54.062Z,62.11
2022-10-17T12:20:21.723Z,61.42
2022-10-17T12:26:10.445Z,59.49
2022-10-17T12:28:37.814Z,59.34
2022-10-17T12:31:23.043Z,60.95
2022-10-17T12:33:57.666Z,62.61
2022-10-17T12:36:28.426Z,61.28
2022-10-17T12:39:01.953Z,60.95
2022-10-17T12:41:52.249Z,61.79
2022-10-17T12:44:22.107Z,59.85
2022-10-17T12:46:59.460Z,59.75
2022-10-17T12:49:51.978Z,60.98
2022-10-17T12:52:35.078Z,61.48
2022-10-17T12:55:13.425Z,61.40
2022-10-17T12:58:00.018Z,61.82
2022-10-17T13:01:18.982Z,59.88
2022-10-17T13:03:48.898Z,60.22
2022-10-17T13:06:22.243Z,60.91
2022-10-17T13:09:04.093Z,59.59
2022-10-17T13:11:36.171Z,60.06
2022-10-17T13:14:12.520Z,60.50
2022-10-17T13:16:51.217Z,59.51
2022-10-17T13:19:23.469Z,59.69
2022-10-17T13:22:06.777Z,59.13
2022-10-17T13:24:40.093Z,59.70
2022-10-17T13:27:24.017Z,59.13
2022-10-17T13:29:51.483Z,59.60
2022-10-17T13:32:18.957Z,58.50
2022-10-17T13:34:46.206Z,58.24
2022-10-17T13:37:15.708Z,58.68
2022-10-17T13:39:55.329Z,59.57
2022-10-17T13:42:27.695Z,59.98
2022-10-17T13:44:57.277Z,59.79
2022-10-17T13:47:32.222Z,58.83
2022-10-17T13:50:00.232Z,59.00
2022-10-17T13:52:29.968Z,58.88
2022-10-17T13:55:11.717Z,58.75
2022-10-17T13:57:42.636Z,58.69
2022-10-17T14:00:21.862Z,59.84
2022-10-17T14:02:53.368Z,59.88
2022-10-17T14:05:24.862Z,60.02
2022-10-17T14:08:23.813Z,60.27
2022-10-17T14:10:55.253Z,60.19
2022-10-17T14:13:34.664Z,59.71
2022-10-17T14:16:04.026Z,59.12
2022-10-17T14:18:37.469Z,59.43
2022-10-17T14:24:28.701Z,59.15
2022-10-17T14:26:59.576Z,59.91
2022-10-17T14:29:29.659Z,60.13
2022-10-17T14:32:04.038Z,59.92
2022-10-17T14:34:35.681Z,59.16
2022-10-17T14:37:10.125Z,59.02
2022-10-17T14:39:38.004Z,59.02
2022-10-17T14:42:05.548Z,59.39
2022-10-17T14:44:35.311Z,59.85
2022-10-17T14:47:30.724Z,59.37
2022-10-17T14:51:04.003Z,59.62
2022-10-17T14:53:31.814Z,59.75
2022-10-17T14:56:02.638Z,60.09
2022-10-17T14:58:34.176Z,60.56
2022-10-17T15:01:02.664Z,60.33
2022-10-17T15:03:31.958Z,60.58
2022-10-17T15:06:18.834Z,60.36
2022-10-17T15:08:46.197Z,60.55
2022-10-17T15:11:13.459Z,60.86
2022-10-17T15:13:45.425Z,60.42
2022-10-17T15:16:18.476Z,60.28
2022-10-17T15:18:46.074Z,60.09
2022-10-17T15:21:26.241Z,60.39
2022-10-17T15:24:02.063Z,60.23
2022-10-17T15:26:34.130Z,58.78
2022-10-17T15:29:01.865Z,60.35
2022-10-17T15:31:31.217Z,61.05
2022-10-17T15:33:58.532Z,61.91
2022-10-17T15:36:28.486Z,61.98
2022-10-17T15:38:59.181Z,61.07
2022-10-17T15:41:29.325Z,60.63
2022-10-17T15:43:57.020Z,61.46
2022-10-17T15:46:27.061Z,62.62
2022-10-17T15:48:55.602Z,62.41
2022-10-17T15:51:23.859Z,62.74
2022-10-17T15:53:51.148Z,62.38
2022-10-17T15:56:41.650Z,63.77
2022-10-17T15:59:15.362Z,66.07
2022-10-17T16:01:42.750Z,68.23
2022-10-17T16:04:14.636Z,66.33
2022-10-17T16:06:42.989Z,67.98
2022-10-17T16:09:11.450Z,68.52
2022-10-17T16:11:41.088Z,68.61
2022-10-17T16:14:12.176Z,70.36
2022-10-17T16:16:39.857Z,70.36
2022-10-17T16:19:07.090Z,69.83
2022-10-17T16:21:42.847Z,70.17
2022-10-17T16:27:58.806Z,68.83
2022-10-17T16:30:34.003Z,69.42
2022-10-17T16:33:04.645Z,68.70
2022-10-17T16:35:37.768Z,69.51
2022-10-17T16:38:06.726Z,70.12
2022-10-17T16:40:34.307Z,71.18
2022-10-17T16:43:01.577Z,71.30
2022-10-17T16:45:29.024Z,71.94
2022-10-17T16:47:56.355Z,72.70
2022-10-17T16:50:24.353Z,72.85
2022-10-17T16:52:51.673Z,72.48
2022-10-17T16:55:19.360Z,73.04
2022-10-17T16:57:49.343Z,73.28
2022-10-17T17:00:18.117Z,73.29
2022-10-17T17:02:49.532Z,73.58
2022-10-17T17:05:17.330Z,74.29
2022-10-17T17:07:47.974Z,74.65
2022-10-17T17:10:15.642Z,74.59
2022-10-17T17:12:43.001Z,74.31
2022-10-17T17:15:10.433Z,73.47
2022-10-17T17:17:55.311Z,74.49
2022-10-17T17:20:36.343Z,73.85
2022-10-17T17:23:20.599Z,73.48
2022-10-17T17:26:00.406Z,73.22
2022-10-17T17:28:28.109Z,73.24
2022-10-17T17:30:55.602Z,73.86
2022-10-17T17:33:29.730Z,74.55
2022-10-17T17:35:59.994Z,74.81
2022-10-17T17:38:32.383Z,76.27
2022-10-17T17:41:00.553Z,77.14
2022-10-17T17:43:28.498Z,77.50
2022-10-17T17:45:56.180Z,78.03
2022-10-17T17:48:23.461Z,78.54
2022-10-17T17:50:50.705Z,79.03
2022-10-17T17:53:18.430Z,79.42
2022-10-17T17:55:45.738Z,79.36
2022-10-17T17:58:13.207Z,79.13
2022-10-17T18:00:40.925Z,79.58
2022-10-17T18:03:08.297Z,79.93
2022-10-17T18:05:35.602Z,80.68
2022-10-17T18:08:04.793Z,81.07
2022-10-17T18:10:32.085Z,81.53
2022-10-17T18:12:59.255Z,81.67
2022-10-17T18:15:26.688Z,82.33
2022-10-17T18:17:53.853Z,82.99
2022-10-17T18:20:21.135Z,83.50
2022-10-17T18:22:48.410Z,83.71
2022-10-17T18:25:15.535Z,84.50
2022-10-17T18:27:42.653Z,85.23
2022-10-17T18:30:10.056Z,85.30
2022-10-17T18:32:37.125Z,85.75
2022-10-17T18:35:04.365Z,86.68
2022-10-17T18:37:31.550Z,87.05
2022-10-17T18:39:58.661Z,86.82
2022-10-17T18:42:25.856Z,87.18
2022-10-17T18:44:52.932Z,87.73
2022-10-17T18:47:20.066Z,88.04
2022-10-17T18:49:48.252Z,88.26
2022-10-17T18:52:15.322Z,88.61
2022-10-17T18:54:42.560Z,89.28
2022-10-17T18:57:09.628Z,89.62
2022-10-17T18:59:37.970Z,89.87
2022-10-17T19:02:05.147Z,89.91
2022-10-17T19:04:32.200Z,90.27
2022-10-17T19:06:59.285Z,90.36
2022-10-17T19:09:26.464Z,90.21
2022-10-17T19:11:53.500Z,90.17
2022-10-17T19:14:20.668Z,90.17
2022-10-17T19:16:48.890Z,91.06
2022-10-17T19:19:18.786Z,91.61
2022-10-17T19:21:46.105Z,91.90
2022-10-17T19:24:14.650Z,92.50
2022-10-17T19:26:42.362Z,92.33
2022-10-17T19:29:10.460Z,92.56
2022-10-17T19:31:37.655Z,92.72
2022-10-17T19:34:04.716Z,93.15
2022-10-17T19:36:33.877Z,93.35
2022-10-17T19:39:05.335Z,93.42
2022-10-17T19:41:32.721Z,93.67
2022-10-17T19:44:00.274Z,93.19
2022-10-17T19:46:27.992Z,92.63
2022-10-17T19:48:55.168Z,93.19
2022-10-17T19:51:26.316Z,93.74
2022-10-17T19:53:54.350Z,94.22
2022-10-17T19:56:22.401Z,94.53
2022-10-17T19:58:49.986Z,94.42
2022-10-17T20:01:21.672Z,94.43
2022-10-17T20:03:49.231Z,94.53
2022-10-17T20:06:16.968Z,94.48
2022-10-17T20:08:44.493Z,95.22
2022-10-17T20:11:13.291Z,95.72
2022-10-17T20:13:40.921Z,95.74
2022-10-17T20:16:08.875Z,95.43
2022-10-17T20:18:36.109Z,95.45
2022-10-17T20:21:08.030Z,95.23
2022-10-17T20:23:35.136Z,95.95
2022-10-17T20:26:13.200Z,95.77
2022-10-17T20:28:51.296Z,95.57
2022-10-17T20:31:18.714Z,95.47
2022-10-17T20:33:46.077Z,95.01
2022-10-17T20:36:14.552Z,95.31
2022-10-17T20:38:41.648Z,95.08
2022-10-17T20:41:09.555Z,95.65
2022-10-17T20:43:36.853Z,96.45
2022-10-17T20:46:22.041Z,96.50
2022-10-17T20:48:51.308Z,96.45
2022-10-17T20:51:18.653Z,96.71
2022-10-17T20:53:45.859Z,96.21
2022-10-17T20:56:20.452Z,96.84
2022-10-17T20:58:51.938Z,96.59
2022-10-17T21:01:19.205Z,96.75
2022-10-17T21:03:46.698Z,96.63
2022-10-17T21:06:14.647Z,97.16
2022-10-17T21:08:41.820Z,97.03
2022-10-17T21:11:09.951Z,96.71
2022-10-17T21:13:37.064Z,97.32
2022-10-17T21:16:05.224Z,97.24
2022-10-17T21:18:32.259Z,97.02
2022-10-17T21:21:13.512Z,96.59
2022-10-17T21:23:41.258Z,96.86
2022-10-17T21:26:09.962Z,97.12
2022-10-17T21:28:37.469Z,95.96
2022-10-17T21:31:09.013Z,96.67
2022-10-17T21:33:36.778Z,96.83
2022-10-17T21:36:03.936Z,97.19
2022-10-17T21:38:30.970Z,97.77
2022-10-17T21:40:58.099Z,98.48
2022-10-17T21:43:25.129Z,98.46
2022-10-17T21:45:52.243Z,98.51
2022-10-17T21:48:19.383Z,98.36
2022-10-17T21:50:46.730Z,97.66
2022-10-17T21:53:13.737Z,97.88
2022-10-17T21:55:40.828Z,97.78
2022-10-17T21:58:07.883Z,97.50
2022-10-17T22:00:34.891Z,97.21
2022-10-17T22:03:02.068Z,97.71
2022-10-17T22:05:30.628Z,97.69
2022-10-17T22:07:57.833Z,97.03
2022-10-17T22:10:24.886Z,97.33
2022-10-17T22:12:51.941Z,97.31
2022-10-17T22:15:18.965Z,97.50
2022-10-17T22:17:46.068Z,97.15
2022-10-17T22:20:13.022Z,96.67
2022-10-17T22:22:40.040Z,97.72
2022-10-17T22:25:07.279Z,97.41
2022-10-17T22:27:34.308Z,96.97
2022-10-17T22:30:01.328Z,97.54
2022-10-17T22:32:28.464Z,96.82
2022-10-17T22:34:55.472Z,96.84
2022-10-17T22:37:23.132Z,96.75
2022-10-17T22:39:50.195Z,96.79
2022-10-17T22:42:17.203Z,97.00
2022-10-17T22:44:46.405Z,97.56
2022-10-17T22:47:13.497Z,97.31
2022-10-17T22:49:40.458Z,97.30
2022-10-17T22:52:07.503Z,97.21
2022-10-17T22:54:34.495Z,97.64
2022-10-17T22:57:01.506Z,98.16
2022-10-17T22:59:28.485Z,98.45
2022-10-17T23:01:55.800Z,98.74
2022-10-17T23:04:22.844Z,99.25
2022-10-17T23:06:49.883Z,98.67
2022-10-17T23:09:17.072Z,98.93
2022-10-17T23:11:44.137Z,98.25
2022-10-17T23:14:11.097Z,98.71
2022-10-17T23:16:38.207Z,98.43
2022-10-17T23:19:05.160Z,98.95
2022-10-17T23:21:32.184Z,99.34
2022-10-17T23:23:59.238Z,99.29
2022-10-17T23:26:26.233Z,99.55
2022-10-17T23:28:53.909Z,100.00
2022-10-17T23:31:21.724Z,100.00
2022-10-17T23:33:49.698Z,100.00
2022-10-17T23:36:17.916Z,100.00
2022-10-17T23:38:45.689Z,100.00
2022-10-17T23:41:12.863Z,100.00
2022-10-17T23:43:39.952Z,99.86
2022-10-17T23:46:07.445Z,99.83
2022-10-17T23:48:34.802Z,98.20
2022-10-17T23:51:01.857Z,98.31
2022-10-17T23:53:28.844Z,98.51
2022-10-17T23:55:56.102Z,98.59
2022-10-17T23:58:23.110Z,98.78
